Time;durP1;ratioP1;P1;durP2;ratioP2;P2;SDS_P1;SDS_P2;PMS_P1;PMS_P2;Temp;Humidity;BMP_temperature;BMP_pressure;BME280_temperature;BME280_humidity;BME280_pressure;Samples;Min_cycle;Max_cycle;Signal;HPM_P1;HPM_P2
2023/05/31 00:01:14;;;;;;;15.75;4.32;;;;;;;17.58;43.63;100975.63;4929276;28;101981;-88
2023/05/31 00:03:43;;;;;;;7.53;3.67;;;;;;;17.46;43.56;100958.56;4942675;28;101022;-87
2023/05/31 00:06:11;;;;;;;7.68;3.28;;;;;;;17.55;43.81;100981.97;4964637;28;97350;-87
2023/05/31 00:08:38;;;;;;;11.88;3.88;;;;;;;17.51;44.00;100977.78;4942864;28;97271;-87
2023/05/31 00:11:05;;;;;;;8.20;3.28;;;;;;;17.40;44.08;100966.84;4942082;28;101355;-88
2023/05/31 00:13:31;;;;;;;12.23;3.95;;;;;;;17.29;44.41;100954.13;4936045;28;100243;-87
2023/05/31 00:15:56;;;;;;;9.05;3.97;;;;;;;17.41;44.65;100980.03;4944511;28;97634;-87
2023/05/31 00:18:22;;;;;;;7.85;4.03;;;;;;;17.37;44.76;100972.31;4961898;28;96882;-87
2023/05/31 00:20:48;;;;;;;9.48;3.17;;;;;;;17.35;45.02;100974.19;4932442;28;101499;-87
2023/05/31 00:23:13;;;;;;;12.85;4.63;;;;;;;17.33;45.18;100978.69;4972752;28;98707;-87
2023/05/31 00:25:39;;;;;;;7.22;3.78;;;;;;;17.32;45.23;100983.16;4937789;28;96959;-86
2023/05/31 00:28:04;;;;;;;9.63;3.65;;;;;;;17.24;45.17;100988.00;4958117;28;96974;-87
2023/05/31 00:30:30;;;;;;;12.40;4.07;;;;;;;17.21;45.33;100980.19;4947820;28;101958;-88
2023/05/31 00:32:56;;;;;;;9.63;3.80;;;;;;;17.19;45.38;100982.06;4955377;28;98006;-87
2023/05/31 00:35:21;;;;;;;10.23;3.70;;;;;;;17.15;45.67;100973.41;4976584;28;96727;-87
2023/05/31 00:37:47;;;;;;;11.00;4.28;;;;;;;17.14;45.47;100979.66;4954100;28;96857;-87
2023/05/31 00:40:13;;;;;;;9.27;3.60;;;;;;;17.12;45.62;100978.03;4942080;28;101800;-87
2023/05/31 00:42:38;;;;;;;9.18;3.92;;;;;;;16.98;45.87;100961.00;4932499;28;101146;-87
2023/05/31 00:45:07;;;;;;;9.45;3.58;;;;;;;17.07;45.76;100974.72;4946861;28;97525;-87
2023/05/31 00:47:35;;;;;;;10.07;2.95;;;;;;;17.03;45.58;100975.84;4957363;28;97672;-86
2023/05/31 00:50:00;;;;;;;14.18;3.85;;;;;;;16.90;45.64;100959.66;4955312;28;101217;-87
2023/05/31 00:52:27;;;;;;;9.57;3.92;;;;;;;16.92;45.68;100969.25;4930367;28;101153;-87
2023/05/31 00:54:53;;;;;;;9.65;3.83;;;;;;;16.93;45.42;100978.97;4930654;28;97416;-86
2023/05/31 00:57:18;;;;;;;9.73;3.72;;;;;;;16.92;45.72;100976.38;4919122;28;97202;-87
2023/05/31 00:59:44;;;;;;;10.85;3.97;;;;;;;16.88;45.87;100974.81;4921750;28;101015;-87
2023/05/31 01:02:14;;;;;;;7.85;3.75;;;;;;;16.80;45.57;100963.72;4931196;28;100143;-86
2023/05/31 01:04:40;;;;;;;7.95;4.25;;;;;;;16.85;45.38;100969.66;4925905;28;97394;-87
2023/05/31 01:07:08;;;;;;;8.40;3.88;;;;;;;16.80;45.72;100974.34;4935297;28;96962;-88
2023/05/31 01:09:35;;;;;;;12.93;4.18;;;;;;;16.77;46.06;100983.28;4904816;28;101076;-87
2023/05/31 01:12:28;;;;;;;10.25;3.95;;;;;;;16.73;46.21;100984.34;4926950;28;101270;-87
2023/05/31 01:15:18;;;;;;;12.27;3.95;;;;;;;16.66;46.24;100981.13;4950002;28;97241;-88
2023/05/31 01:17:52;;;;;;;9.55;3.67;;;;;;;16.69;46.34;100988.06;4948116;28;97130;-87
2023/05/31 01:20:20;;;;;;;13.77;3.58;;;;;;;16.60;46.61;100984.06;4929962;28;101047;-87
2023/05/31 01:23:14;;;;;;;13.43;3.95;;;;;;;16.59;46.55;100992.97;4918046;28;100984;-87
2023/05/31 01:26:28;;;;;;;8.85;3.85;;;;;;;16.55;46.48;100986.13;4932240;28;97448;-86
2023/05/31 01:28:56;;;;;;;12.98;3.58;;;;;;;16.52;46.72;100983.59;4917897;28;96966;-87
2023/05/31 01:31:24;;;;;;;15.00;4.55;;;;;;;16.51;46.31;100981.88;4914321;28;100555;-88
2023/05/31 01:33:50;;;;;;;7.53;3.60;;;;;;;16.47;46.36;100989.13;4915424;28;101113;-88
2023/05/31 01:36:16;;;;;;;11.77;4.28;;;;;;;16.42;46.80;100985.81;4916464;28;97406;-87
2023/05/31 01:38:42;;;;;;;12.35;4.15;;;;;;;16.41;46.47;100984.13;4913545;28;97016;-88
2023/05/31 01:41:09;;;;;;;11.27;5.00;;;;;;;16.38;46.81;100986.91;4931544;28;98469;-88
2023/05/31 01:43:37;;;;;;;10.57;4.22;;;;;;;16.28;46.76;100964.44;4910955;28;101616;-87
2023/05/31 01:46:04;;;;;;;9.43;4.15;;;;;;;16.38;46.54;100986.06;4934628;28;97097;-87
2023/05/31 01:48:31;;;;;;;10.05;3.58;;;;;;;16.34;46.74;100987.13;4933546;28;96875;-87
2023/05/31 01:50:57;;;;;;;8.10;3.80;;;;;;;16.12;46.70;100960.81;4928205;28;101390;-87
2023/05/31 01:53:23;;;;;;;9.13;4.50;;;;;;;16.30;46.92;100989.91;4954235;28;100116;-86
2023/05/31 01:55:49;;;;;;;13.70;4.15;;;;;;;16.28;46.82;100993.56;4934618;28;97960;-87
2023/05/31 01:58:16;;;;;;;8.18;3.67;;;;;;;16.26;47.15;100995.41;4931590;28;96770;-87
2023/05/31 02:00:42;;;;;;;10.10;3.88;;;;;;;16.09;47.55;100979.50;4944718;28;99907;-87
2023/05/31 02:03:08;;;;;;;9.32;3.95;;;;;;;16.20;47.31;100995.72;4954122;28;100898;-87
2023/05/31 02:05:34;;;;;;;7.10;3.75;;;;;;;16.13;47.64;100999.59;4931323;28;96949;-87
2023/05/31 02:07:59;;;;;;;9.32;4.35;;;;;;;16.02;47.46;100986.84;4938011;28;96862;-87
2023/05/31 02:10:25;;;;;;;9.90;4.30;;;;;;;16.12;47.44;101001.38;4950145;28;99883;-86
2023/05/31 02:12:53;;;;;;;8.30;3.90;;;;;;;16.02;47.59;100993.00;4935080;28;100555;-86
2023/05/31 02:15:19;;;;;;;10.48;3.88;;;;;;;16.11;47.49;101004.09;4934383;28;97114;-87
2023/05/31 02:17:46;;;;;;;10.30;4.10;;;;;;;16.10;47.66;101007.69;4949136;28;96919;-87
2023/05/31 02:20:13;;;;;;;11.95;4.60;;;;;;;15.88;47.59;100970.72;4934634;28;101460;-87
2023/05/31 02:22:45;;;;;;;12.00;4.25;;;;;;;16.03;47.54;101001.81;4932822;28;101089;-87
2023/05/31 02:25:13;;;;;;;7.22;4.00;;;;;;;15.73;47.37;100969.63;4936945;28;97814;-88
2023/05/31 02:27:40;;;;;;;11.05;4.30;;;;;;;15.80;47.52;100984.34;4937421;28;97452;-87
2023/05/31 02:30:08;;;;;;;12.70;4.55;;;;;;;15.98;47.64;101014.41;4933232;28;101064;-87
2023/05/31 02:32:35;;;;;;;11.18;3.72;;;;;;;15.92;47.98;101014.69;4944301;28;98638;-86
2023/05/31 02:35:10;;;;;;;15.68;4.82;;;;;;;15.85;48.03;101016.72;4936459;28;96970;-87
2023/05/31 02:37:38;;;;;;;9.63;4.18;;;;;;;15.88;48.05;101016.59;4934396;28;97467;-86
2023/05/31 02:40:08;;;;;;;10.18;4.32;;;;;;;15.85;48.11;101016.72;4932750;28;100752;-87
2023/05/31 02:42:41;;;;;;;13.10;4.40;;;;;;;15.83;48.16;101022.09;4934775;28;100610;-87
2023/05/31 02:45:08;;;;;;;10.07;4.00;;;;;;;15.78;48.05;101008.22;4945667;28;97166;-87
2023/05/31 02:47:36;;;;;;;11.57;4.93;;;;;;;15.55;48.06;100972.16;4919464;28;96860;-86
2023/05/31 02:50:07;;;;;;;12.60;5.35;;;;;;;15.83;48.01;101019.47;4929883;28;102853;-87
2023/05/31 02:52:34;;;;;;;11.50;4.13;;;;;;;15.80;47.94;101022.25;4936987;28;99798;-87
2023/05/31 02:55:11;;;;;;;11.23;4.95;;;;;;;15.75;48.11;101016.28;4940049;28;96854;-88
2023/05/31 02:57:54;;;;;;;14.93;4.75;;;;;;;15.79;48.13;101022.28;4929939;28;97017;-87
2023/05/31 03:00:20;;;;;;;10.63;4.35;;;;;;;15.75;48.38;101013.63;4933213;28;100391;-87
2023/05/31 03:02:46;;;;;;;7.97;3.97;;;;;;;15.80;48.29;101024.03;4943904;28;101485;-88
2023/05/31 03:05:33;;;;;;;10.05;4.28;;;;;;;15.75;48.04;101020.72;4942461;28;96788;-86
2023/05/31 03:07:59;;;;;;;11.35;4.32;;;;;;;15.63;48.26;100996.50;4953998;28;96819;-87
2023/05/31 03:10:25;;;;;;;10.52;4.20;;;;;;;15.70;48.20;101010.34;4932903;28;101368;-87
2023/05/31 03:12:50;;;;;;;11.70;4.53;;;;;;;15.76;48.24;101018.00;4933655;28;100325;-86
2023/05/31 03:15:16;;;;;;;9.70;4.70;;;;;;;15.78;48.22;101029.38;4925262;28;97483;-87
2023/05/31 03:17:42;;;;;;;11.07;4.88;;;;;;;15.82;48.22;101025.69;4927295;28;96996;-87
2023/05/31 03:20:08;;;;;;;14.07;4.97;;;;;;;15.94;47.70;101028.69;4936693;28;100280;-87
2023/05/31 03:22:35;;;;;;;11.95;4.28;;;;;;;15.71;47.63;100975.00;4952748;28;100729;-87
2023/05/31 03:25:03;;;;;;;11.00;4.78;;;;;;;16.02;47.55;101024.75;4934566;28;97245;-87
2023/05/31 03:27:30;;;;;;;13.23;5.47;;;;;;;15.84;47.36;100985.91;4936346;28;97240;-86
2023/05/31 03:29:55;;;;;;;10.57;4.82;;;;;;;16.14;47.54;101030.44;4932794;28;101300;-87
2023/05/31 03:32:21;;;;;;;12.70;4.55;;;;;;;16.14;47.43;101026.00;4933235;28;100273;-87
2023/05/31 03:34:49;;;;;;;15.40;4.68;;;;;;;16.16;47.46;101031.22;4953247;28;97994;-88
2023/05/31 03:37:15;;;;;;;9.93;4.82;;;;;;;16.27;47.09;101023.66;4936420;28;97047;-88
2023/05/31 03:39:43;;;;;;;13.27;4.70;;;;;;;16.33;47.03;101028.66;4933265;28;100941;-87
2023/05/31 03:42:16;;;;;;;10.90;4.95;;;;;;;16.40;46.95;101029.22;4933618;28;100095;-88
2023/05/31 03:44:43;;;;;;;12.63;4.70;;;;;;;16.43;47.00;101031.72;4925037;28;96922;-87
2023/05/31 03:47:10;;;;;;;12.98;4.97;;;;;;;16.36;46.86;101007.31;4954059;28;96969;-87
2023/05/31 03:49:36;;;;;;;12.38;5.65;;;;;;;16.52;46.83;101028.63;4926958;28;101671;-87
2023/05/31 03:52:01;;;;;;;8.88;4.68;;;;;;;16.51;46.77;101025.13;4936240;28;100685;-87
2023/05/31 03:54:29;;;;;;;9.98;4.97;;;;;;;16.51;46.75;101011.88;4917287;28;97406;-87
2023/05/31 03:56:55;;;;;;;8.32;4.65;;;;;;;16.70;46.65;101033.06;4930267;28;97263;-86
2023/05/31 03:59:21;;;;;;;11.40;5.05;;;;;;;16.70;46.35;101016.31;4932124;28;99883;-87
2023/05/31 04:01:47;;;;;;;16.00;5.43;;;;;;;16.84;46.15;101037.75;4904021;28;99893;-87
2023/05/31 04:04:12;;;;;;;20.38;6.07;;;;;;;16.87;46.27;101028.75;4945343;28;97511;-87
2023/05/31 04:06:38;;;;;;;13.05;5.40;;;;;;;16.96;45.93;101031.84;4931395;28;97621;-87
2023/05/31 04:09:04;;;;;;;8.55;4.97;;;;;;;17.05;45.84;101035.84;4929030;28;101570;-86
2023/05/31 04:11:30;;;;;;;11.60;4.30;;;;;;;17.05;45.81;101027.03;4932992;28;100228;-86
2023/05/31 04:13:55;;;;;;;12.85;5.60;;;;;;;17.20;45.69;101042.16;4919793;28;97098;-87
2023/05/31 04:16:22;;;;;;;10.63;5.07;;;;;;;17.26;45.30;101046.31;4934196;28;97085;-88
2023/05/31 04:18:48;;;;;;;16.27;5.32;;;;;;;17.36;45.37;101042.22;4924643;28;100379;-87
2023/05/31 04:21:14;;;;;;;11.95;4.72;;;;;;;17.47;45.03;101045.19;4916906;28;101849;-87
2023/05/31 04:23:40;;;;;;;10.55;5.03;;;;;;;17.59;45.15;101043.69;4933138;28;96659;-87
2023/05/31 04:26:06;;;;;;;10.93;5.32;;;;;;;17.68;45.29;101031.75;4931207;28;96866;-86
2023/05/31 04:28:33;;;;;;;7.95;3.97;;;;;;;17.76;44.79;101041.03;4931498;28;101539;-87
2023/05/31 04:31:00;;;;;;;10.90;5.22;;;;;;;17.80;44.82;101018.75;4912891;28;101494;-86
2023/05/31 04:33:29;;;;;;;18.13;4.78;;;;;;;17.99;44.25;101033.69;4925504;28;97474;-88
2023/05/31 04:35:57;;;;;;;12.65;5.32;;;;;;;18.06;44.06;101027.97;4909997;28;96997;-87
2023/05/31 04:38:27;;;;;;;10.57;4.97;;;;;;;17.82;43.86;100969.03;4918502;28;101188;-87
2023/05/31 04:40:55;;;;;;;15.32;5.28;;;;;;;18.32;43.71;101030.97;4904116;28;99574;-87
2023/05/31 04:43:21;;;;;;;16.00;5.22;;;;;;;18.33;43.77;101009.63;4951316;28;96804;-88
2023/05/31 04:45:48;;;;;;;13.43;5.20;;;;;;;18.16;43.83;100972.53;4932107;28;97003;-87
2023/05/31 04:48:16;;;;;;;16.85;5.20;;;;;;;18.40;43.85;101002.19;4933214;28;100950;-87
2023/05/31 04:50:42;;;;;;;12.80;4.82;;;;;;;18.75;43.52;101048.06;4935438;28;101151;-88
2023/05/31 04:53:08;;;;;;;12.68;5.13;;;;;;;18.87;43.47;101046.53;4951163;28;96937;-88
2023/05/31 04:55:33;;;;;;;8.73;4.93;;;;;;;19.02;43.31;101047.44;4950013;28;97752;-87
2023/05/31 04:58:04;;;;;;;;;;;;;;;19.11;43.07;101040.72;4949406;28;101572;-87
2023/05/31 05:00:32;;;;;;;13.55;4.68;;;;;;;19.14;43.11;101036.09;4949041;28;101647;-87
2023/05/31 05:03:08;;;;;;;12.02;4.88;;;;;;;19.20;43.07;101022.44;4931352;28;97076;-86
2023/05/31 05:05:33;;;;;;;16.80;5.53;;;;;;;19.47;42.61;101034.19;4926841;28;97298;-86
2023/05/31 05:08:00;;;;;;;10.73;5.65;;;;;;;19.57;42.68;101036.19;4938439;28;100431;-87
2023/05/31 05:10:26;;;;;;;8.40;5.07;;;;;;;19.55;42.44;101026.59;4941977;28;100996;-86
2023/05/31 05:12:53;;;;;;;10.13;6.15;;;;;;;19.79;42.45;101041.13;4967285;28;97256;-87
2023/05/31 05:15:19;;;;;;;12.18;5.93;;;;;;;19.81;42.19;101035.69;4954939;28;96936;-89
2023/05/31 05:17:45;;;;;;;12.98;5.75;;;;;;;19.91;42.27;101031.50;4947319;28;99737;-86
2023/05/31 05:20:12;;;;;;;11.10;5.38;;;;;;;20.10;41.63;101037.41;4954180;28;100343;-86
2023/05/31 05:22:41;;;;;;;15.45;6.20;;;;;;;20.20;41.41;101026.19;4939482;28;96863;-82
2023/05/31 05:25:07;;;;;;;16.50;6.10;;;;;;;20.28;41.11;101024.72;4948028;28;96807;-84
2023/05/31 05:27:33;;;;;;;13.68;5.38;;;;;;;20.54;41.06;101036.44;4961405;28;101268;-85
2023/05/31 05:29:58;;;;;;;12.70;4.65;;;;;;;20.60;40.80;101027.19;4948432;28;101300;-83
2023/05/31 05:32:24;;;;;;;14.93;5.53;;;;;;;20.85;40.50;101030.91;4937226;28;98006;-83
2023/05/31 05:34:50;;;;;;;14.55;4.05;;;;;;;20.78;38.85;100991.28;4925782;28;97275;-83
2023/05/31 05:37:15;;;;;;;12.80;4.07;;;;;;;21.40;37.77;101024.56;4939806;28;100723;-82
2023/05/31 05:39:41;;;;;;;10.38;3.70;;;;;;;21.84;36.40;101017.94;4936128;28;101385;-81
2023/05/31 05:42:07;;;;;;;9.32;3.65;;;;;;;22.64;35.56;100972.97;4934292;28;98122;-83
2023/05/31 05:44:33;;;;;;;13.23;4.32;;;;;;;23.91;32.97;101030.25;4927995;28;97579;-83
2023/05/31 05:46:59;;;;;;;7.60;3.03;;;;;;;25.57;31.65;101021.13;4927455;28;101206;-84
2023/05/31 05:49:25;;;;;;;8.80;3.78;;;;;;;27.49;28.97;101018.22;4928997;28;100566;-84
2023/05/31 05:51:51;;;;;;;7.30;3.50;;;;;;;29.48;26.09;101012.03;4930651;28;96925;-84
2023/05/31 05:54:17;;;;;;;9.50;3.33;;;;;;;32.96;22.46;100998.94;4923039;28;97747;-83
2023/05/31 05:56:43;;;;;;;11.93;3.35;;;;;;;36.96;18.65;100993.59;4920812;28;101313;-84
2023/05/31 05:59:09;;;;;;;7.45;3.63;;;;;;;39.96;16.91;100997.28;4944502;28;101705;-84
2023/05/31 06:01:35;;;;;;;10.70;4.32;;;;;;;42.59;14.91;100981.25;4955732;28;97455;-84
2023/05/31 06:04:01;;;;;;;8.18;3.47;;;;;;;44.47;13.53;100996.13;4934432;28;96992;-84
2023/05/31 06:06:28;;;;;;;9.23;3.80;;;;;;;45.73;12.64;100988.22;4937259;28;101224;-84
2023/05/31 06:08:53;;;;;;;10.57;4.25;;;;;;;46.82;12.06;100988.25;4929199;28;101175;-85
2023/05/31 06:11:19;;;;;;;15.52;4.03;;;;;;;47.79;11.70;100977.78;4933015;28;97118;-85
2023/05/31 06:13:45;;;;;;;9.02;3.55;;;;;;;48.60;11.28;100986.78;4922785;28;96799;-84
2023/05/31 06:16:14;;;;;;;18.20;4.00;;;;;;;48.95;10.37;100982.03;4949299;28;101107;-85
2023/05/31 06:18:40;;;;;;;11.73;4.25;;;;;;;49.78;10.17;100980.03;4950964;28;100829;-85
2023/05/31 06:21:06;;;;;;;8.93;3.63;;;;;;;50.38;10.18;100987.84;4957582;28;97312;-84
2023/05/31 06:23:34;;;;;;;7.85;3.30;;;;;;;51.17;10.02;100977.56;4925376;28;96969;-84
2023/05/31 06:25:59;;;;;;;6.40;3.70;;;;;;;51.33;9.27;100964.13;4944020;28;97272;-84
2023/05/31 06:28:25;;;;;;;4.72;3.35;;;;;;;52.02;9.01;100980.84;4950808;28;97468;-84
2023/05/31 06:30:54;;;;;;;6.85;3.22;;;;;;;52.47;8.82;100972.50;4950757;28;97479;-84
2023/05/31 06:33:19;;;;;;;8.20;4.43;;;;;;;52.87;8.83;100966.19;4933905;28;96934;-85
2023/05/31 06:35:45;;;;;;;6.45;3.92;;;;;;;53.25;8.62;100974.13;4925378;28;101441;-83
2023/05/31 06:38:15;;;;;;;9.80;3.92;;;;;;;54.09;8.16;100972.19;4941165;28;99256;-81
2023/05/31 06:40:44;;;;;;;10.63;4.47;;;;;;;54.45;8.26;100977.47;4947672;28;97677;-81
2023/05/31 06:43:10;;;;;;;10.00;4.57;;;;;;;54.07;8.66;100974.50;4924347;28;96983;-81
2023/05/31 06:46:07;;;;;;;9.10;4.78;;;;;;;55.05;8.16;100962.47;4924217;28;97431;-81
2023/05/31 06:48:51;;;;;;;9.10;4.25;;;;;;;55.76;7.55;100963.72;4947676;28;97550;-82
2023/05/31 06:51:57;;;;;;;6.57;4.15;;;;;;;56.00;7.39;100963.06;4932055;28;96984;-81
2023/05/31 06:54:28;;;;;;;9.23;4.22;;;;;;;56.45;7.71;100971.59;4927926;28;97321;-80
2023/05/31 06:56:56;;;;;;;5.22;3.78;;;;;;;56.21;7.26;100957.44;4905536;28;100729;-81
2023/05/31 06:59:22;;;;;;;11.10;3.50;;;;;;;56.80;7.07;100957.16;4961392;28;97910;-82
2023/05/31 07:01:47;;;;;;;7.85;3.88;;;;;;;57.28;7.39;100961.19;4926747;28;97122;-82
2023/05/31 07:04:13;;;;;;;4.18;3.45;;;;;;;57.84;7.00;100951.25;4934032;28;97172;-81
2023/05/31 07:06:40;;;;;;;9.80;3.50;;;;;;;58.33;6.49;100959.53;4930642;28;101511;-91
2023/05/31 07:09:06;;;;;;;7.93;3.20;;;;;;;58.56;6.34;100946.47;4936804;28;100377;-95
2023/05/31 07:11:34;;;;;;;6.35;4.70;;;;;;;58.84;6.15;100940.75;4935925;28;96927;-94
2023/05/31 07:14:02;;;;;;;5.37;3.53;;;;;;;58.91;6.46;100934.44;4929565;28;96875;-81
2023/05/31 07:16:28;;;;;;;9.68;3.65;;;;;;;59.53;6.41;100937.56;4928407;28;100986;-83
2023/05/31 07:18:56;;;;;;;7.93;4.05;;;;;;;60.00;6.26;100936.56;4932627;28;101649;-84
2023/05/31 07:21:22;;;;;;;8.55;4.22;;;;;;;59.66;6.08;100932.59;4946629;28;97118;-84
2023/05/31 07:23:48;;;;;;;5.35;4.00;;;;;;;60.14;6.37;100928.38;4944604;28;97393;-83
2023/05/31 07:26:16;;;;;;;6.57;4.18;;;;;;;60.64;6.17;100932.13;4936204;28;101988;-82
2023/05/31 07:28:45;;;;;;;4.95;4.07;;;;;;;60.85;6.01;100934.53;4924715;28;101062;-82
2023/05/31 07:31:12;;;;;;;5.60;4.50;;;;;;;61.27;5.67;100933.56;4934520;28;97376;-82
2023/05/31 07:33:37;;;;;;;6.45;4.88;;;;;;;61.65;5.66;100934.53;4925664;28;97604;-82
2023/05/31 07:36:03;;;;;;;8.05;5.25;;;;;;;61.73;6.01;100926.91;4947390;28;97447;-82
2023/05/31 07:38:29;;;;;;;5.55;4.68;;;;;;;61.81;6.40;100933.50;4941949;28;97802;-82
2023/05/31 07:40:54;;;;;;;11.05;5.28;;;;;;;62.11;5.97;100931.41;4933414;28;97291;-82
2023/05/31 07:43:20;;;;;;;6.57;4.95;;;;;;;62.05;5.58;100915.13;4966291;28;96809;-83
2023/05/31 07:45:46;;;;;;;5.88;5.03;;;;;;;62.31;5.47;100931.25;4949095;28;101114;-83
2023/05/31 07:48:11;;;;;;;5.95;5.32;;;;;;;62.65;5.90;100927.09;4934092;28;101307;-83
2023/05/31 07:50:37;;;;;;;8.38;5.07;;;;;;;62.91;5.70;100922.44;4956130;28;97190;-82
2023/05/31 07:53:02;;;;;;;7.72;5.22;;;;;;;62.14;5.25;100913.63;4967677;28;97201;-82
2023/05/31 07:55:28;;;;;;;6.63;4.95;;;;;;;62.10;5.67;100917.63;4957125;28;100769;-84
2023/05/31 07:57:53;;;;;;;5.55;5.05;;;;;;;62.62;5.25;100904.34;4945504;28;101696;-82
2023/05/31 08:00:19;;;;;;;6.28;4.85;;;;;;;62.83;5.31;100910.19;4946535;28;97986;-83
2023/05/31 08:02:45;;;;;;;10.80;5.30;;;;;;;62.22;5.18;100903.97;4938561;28;97987;-83
2023/05/31 08:05:13;;;;;;;5.82;5.22;;;;;;;62.93;5.15;100907.81;4939754;28;100812;-81
2023/05/31 08:07:38;;;;;;;5.72;4.97;;;;;;;63.37;4.99;100904.03;4966501;28;97337;-83
2023/05/31 08:10:05;;;;;;;6.03;5.53;;;;;;;63.42;5.17;100895.94;4961535;28;97270;-83
2023/05/31 08:12:31;;;;;;;6.80;5.10;;;;;;;63.93;5.53;100905.53;4948307;28;97464;-83
2023/05/31 08:14:56;;;;;;;5.25;4.85;;;;;;;63.62;5.27;100905.00;4963931;28;101353;-83
2023/05/31 08:17:22;;;;;;;10.40;5.68;;;;;;;63.49;5.65;100900.88;4950549;28;101070;-83
2023/05/31 08:19:47;;;;;;;7.00;5.40;;;;;;;63.45;5.83;100895.13;4936335;28;97261;-83
2023/05/31 08:22:13;;;;;;;8.52;5.38;;;;;;;62.91;5.34;100904.56;4937484;28;97287;-83
2023/05/31 08:24:38;;;;;;;6.50;5.97;;;;;;;62.37;5.14;100898.41;4953871;28;97794;-83
2023/05/31 08:27:05;;;;;;;6.60;4.78;;;;;;;61.43;5.74;100896.50;4954282;28;101747;-83
2023/05/31 08:29:30;;;;;;;8.05;4.85;;;;;;;60.00;5.67;100894.09;4948244;28;97236;-83
2023/05/31 08:31:56;;;;;;;4.97;4.20;;;;;;;57.24;6.88;100898.22;4950197;28;97236;-84
2023/05/31 08:34:22;;;;;;;5.75;3.33;;;;;;;53.06;9.04;100902.31;4947681;28;100795;-83
2023/05/31 08:36:47;;;;;;;5.18;3.15;;;;;;;50.18;10.34;100899.66;4947258;28;101782;-82
2023/05/31 08:39:13;;;;;;;4.38;3.20;;;;;;;47.81;11.63;100914.38;4953414;28;96857;-83
2023/05/31 08:42:02;;;;;;;2.88;2.47;;;;;;;45.44;12.39;100911.03;4925762;28;97156;-83
2023/05/31 08:44:29;;;;;;;4.45;2.80;;;;;;;43.63;13.36;100917.19;4948052;28;98051;-83
2023/05/31 08:46:59;;;;;;;6.10;2.70;;;;;;;41.64;14.05;100906.34;4944045;28;101319;-84
2023/05/31 08:49:25;;;;;;;4.05;2.50;;;;;;;40.55;14.81;100920.53;4926977;28;97317;-83
2023/05/31 08:51:52;;;;;;;6.10;2.22;;;;;;;39.77;15.56;100922.28;4966010;28;96929;-82
2023/05/31 08:54:18;;;;;;;2.78;1.80;;;;;;;38.78;16.79;100913.09;4952707;28;98349;-82
2023/05/31 08:56:44;;;;;;;4.82;2.38;;;;;;;37.73;17.50;100905.28;4939146;28;101808;-82
2023/05/31 08:59:11;;;;;;;6.22;2.13;;;;;;;37.19;17.37;100920.16;4936000;28;97931;-82
2023/05/31 09:01:38;;;;;;;4.78;1.80;;;;;;;36.47;17.23;100905.38;4960400;28;97255;-82
2023/05/31 09:04:05;;;;;;;6.38;2.17;;;;;;;35.85;17.94;100933.78;4941375;28;101616;-82
2023/05/31 09:06:30;;;;;;;2.72;1.70;;;;;;;34.73;18.60;100931.91;4964417;28;98209;-82
2023/05/31 09:08:56;;;;;;;6.68;2.25;;;;;;;34.30;19.26;100927.28;4952549;28;97166;-82
2023/05/31 09:11:22;;;;;;;7.43;2.30;;;;;;;34.06;19.45;100927.63;4928336;28;97528;-82
2023/05/31 09:13:48;;;;;;;3.95;2.05;;;;;;;33.74;19.84;100911.47;4949335;28;101746;-82
2023/05/31 09:16:13;;;;;;;6.28;2.45;;;;;;;33.30;20.30;100934.06;4965492;28;98116;-82
2023/05/31 09:18:39;;;;;;;6.88;2.75;;;;;;;33.19;20.35;100923.66;4933185;28;97379;-82
2023/05/31 09:21:12;;;;;;;11.82;2.40;;;;;;;32.89;20.31;100926.28;4939052;28;97890;-83
2023/05/31 09:23:54;;;;;;;8.20;2.60;;;;;;;32.83;21.07;100913.44;4937163;28;102324;-83
2023/05/31 09:26:20;;;;;;;5.70;2.28;;;;;;;32.77;21.14;100925.03;4949843;28;101047;-84
2023/05/31 09:28:53;;;;;;;11.48;2.80;;;;;;;32.34;20.86;100904.78;4942537;28;97375;-83
2023/05/31 09:31:19;;;;;;;10.63;2.85;;;;;;;32.29;21.18;100926.22;4942410;28;97209;-85
2023/05/31 09:33:51;;;;;;;5.53;2.65;;;;;;;32.23;21.10;100927.78;4929835;28;101390;-82
2023/05/31 09:36:25;;;;;;;4.93;2.53;;;;;;;32.05;21.10;100919.06;4921278;28;100639;-84
2023/05/31 09:38:50;;;;;;;11.77;2.47;;;;;;;31.95;21.57;100917.44;4932678;28;97258;-82
2023/05/31 09:41:18;;;;;;;8.05;2.78;;;;;;;31.79;21.48;100914.75;4945628;28;97529;-85
2023/05/31 09:43:49;;;;;;;8.68;3.03;;;;;;;31.62;21.62;100915.84;4956589;28;101750;-82
2023/05/31 09:46:20;;;;;;;4.13;2.05;;;;;;;31.49;21.50;100906.38;4943672;28;97887;-85
2023/05/31 09:48:56;;;;;;;4.10;1.83;;;;;;;31.44;21.33;100907.94;4942537;28;97517;-84
2023/05/31 09:51:22;;;;;;;10.02;2.97;;;;;;;31.27;21.84;100902.53;4962115;28;97510;-84
2023/05/31 09:53:51;;;;;;;7.70;2.58;;;;;;;31.13;22.13;100905.94;4942280;28;101487;-84
2023/05/31 09:56:19;;;;;;;8.97;2.67;;;;;;;30.81;21.71;100904.97;4942997;28;100841;-84
2023/05/31 09:58:45;;;;;;;4.65;1.90;;;;;;;30.77;22.46;100895.44;4935830;28;97857;-84
2023/05/31 10:01:10;;;;;;;7.68;2.30;;;;;;;30.34;23.03;100878.53;4948634;28;98252;-83
2023/05/31 10:03:38;;;;;;;5.20;2.25;;;;;;;30.30;23.95;100906.94;4941999;28;101818;-82
2023/05/31 10:06:04;;;;;;;4.70;2.10;;;;;;;30.42;23.21;100902.03;4934819;28;101437;-84
2023/05/31 10:08:32;;;;;;;5.47;2.30;;;;;;;30.34;23.20;100893.88;4961265;28;97403;-82
2023/05/31 10:11:00;;;;;;;8.18;2.63;;;;;;;29.83;23.88;100880.41;4941487;28;97385;-82
2023/05/31 10:13:30;;;;;;;5.05;2.00;;;;;;;29.94;23.89;100876.53;4956394;28;98366;-82
2023/05/31 10:15:58;;;;;;;5.47;2.53;;;;;;;29.66;24.03;100868.66;4943229;28;102317;-82
2023/05/31 10:18:31;;;;;;;3.25;2.08;;;;;;;29.81;24.66;100870.75;4928784;28;97872;-82
2023/05/31 10:21:04;;;;;;;8.20;2.35;;;;;;;29.92;24.82;100889.38;4927026;28;97385;-82
2023/05/31 10:23:48;;;;;;;5.50;2.58;;;;;;;29.86;24.81;100885.47;4960403;28;102396;-82
2023/05/31 10:26:17;;;;;;;7.15;2.15;;;;;;;29.74;24.76;100882.22;4960941;28;98327;-83
2023/05/31 10:29:08;;;;;;;6.03;2.65;;;;;;;29.73;24.71;100885.06;4944964;28;97353;-81
2023/05/31 10:31:39;;;;;;;8.80;2.53;;;;;;;29.40;23.26;100881.38;4944445;28;97213;-82
2023/05/31 10:34:16;;;;;;;4.60;2.40;;;;;;;28.71;23.31;100878.53;4943159;28;101375;-79
2023/05/31 10:36:41;;;;;;;10.73;2.85;;;;;;;29.00;25.43;100874.66;4950299;28;98041;-81
2023/05/31 10:39:14;;;;;;;5.15;1.88;;;;;;;29.06;25.71;100876.75;4930461;28;97508;-81
2023/05/31 10:41:43;;;;;;;5.40;2.00;;;;;;;28.79;25.79;100872.31;4946430;28;97153;-82
2023/05/31 10:44:14;;;;;;;5.88;2.33;;;;;;;28.82;26.36;100845.84;4947073;28;101108;-82
2023/05/31 10:46:41;;;;;;;5.57;2.40;;;;;;;28.97;26.06;100869.56;4941154;28;97703;-82
2023/05/31 10:49:09;;;;;;;11.27;2.53;;;;;;;28.92;25.94;100875.47;4940085;28;97326;-83
2023/05/31 10:51:39;;;;;;;4.97;2.08;;;;;;;28.50;25.34;100856.41;4942240;28;97290;-82
2023/05/31 10:54:05;;;;;;;2.83;1.90;;;;;;;28.29;24.85;100848.59;4945995;28;98216;-82
2023/05/31 10:56:30;;;;;;;5.50;2.20;;;;;;;28.16;24.34;100852.53;4930544;28;101550;-83
2023/05/31 10:58:56;;;;;;;4.93;2.28;;;;;;;28.05;25.01;100854.59;4947468;28;97438;-81
2023/05/31 11:01:22;;;;;;;8.90;2.28;;;;;;;28.01;25.26;100861.28;4943551;28;97549;-85
2023/05/31 11:03:52;;;;;;;6.93;2.15;;;;;;;27.99;26.66;100862.31;4924389;28;100863;-83
2023/05/31 11:06:25;;;;;;;5.03;1.70;;;;;;;27.96;27.41;100867.16;4929617;28;101411;-83
2023/05/31 11:09:04;;;;;;;11.13;2.45;;;;;;;27.89;26.83;100856.09;4937096;28;97264;-82
2023/05/31 11:11:33;;;;;;;6.95;1.92;;;;;;;27.92;26.80;100853.09;4924765;28;97388;-84
2023/05/31 11:14:10;;;;;;;5.80;2.22;;;;;;;27.98;26.94;100852.53;4958039;28;101424;-87
2023/05/31 11:17:06;;;;;;;7.50;1.90;;;;;;;27.87;26.66;100841.09;4937626;28;100247;-86
2023/05/31 11:19:35;;;;;;;4.75;1.85;;;;;;;27.67;27.07;100851.13;4952674;28;97459;-84
2023/05/31 11:22:09;;;;;;;8.33;2.53;;;;;;;27.48;26.18;100852.88;4945725;28;97629;-86
2023/05/31 11:24:50;;;;;;;7.43;2.25;;;;;;;27.27;26.11;100838.81;4939516;28;98627;-86